createdAt,value
2022-08-10T00:04:07.174Z,2.30
2022-08-10T00:09:08.914Z,2.35
2022-08-10T00:14:10.930Z,2.20
2022-08-10T00:19:13.075Z,2.40
2022-08-10T00:24:18.521Z,2.60
2022-08-10T00:29:20.307Z,2.60
2022-08-10T00:34:22.065Z,2.60
2022-08-10T00:39:24.453Z,2.85
2022-08-10T00:44:26.957Z,2.25
2022-08-10T00:49:28.942Z,2.50
2022-08-10T00:54:31.058Z,2.90
2022-08-10T00:59:33.801Z,2.63
2022-08-10T01:04:59.276Z,2.63
2022-08-10T01:10:23.872Z,2.40
2022-08-10T01:15:34.471Z,2.85
2022-08-10T01:20:39.208Z,2.88
2022-08-10T01:26:12.329Z,2.90
2022-08-10T01:31:14.506Z,2.80
2022-08-10T01:36:32.606Z,2.85
2022-08-10T01:41:46.561Z,2.55
2022-08-10T01:46:53.185Z,3.15
2022-08-10T01:52:01.556Z,3.00
2022-08-10T01:57:04.393Z,2.83
2022-08-10T02:07:14.660Z,3.20
2022-08-10T02:12:21.689Z,2.70
2022-08-10T02:18:00.637Z,2.72
2022-08-10T02:23:00.283Z,2.67
2022-08-10T02:28:04.934Z,2.72
2022-08-10T02:33:07.457Z,3.00
2022-08-10T02:38:10.398Z,2.80
2022-08-10T02:49:05.208Z,2.85
2022-08-10T02:54:11.795Z,3.00
2022-08-10T02:59:27.934Z,2.65
2022-08-10T03:04:56.966Z,3.00
2022-08-10T03:10:02.700Z,3.05
2022-08-10T03:15:09.051Z,3.10
2022-08-10T03:20:38.058Z,2.90
2022-08-10T03:25:52.583Z,3.03
2022-08-10T03:30:58.150Z,3.30
2022-08-10T03:36:40.580Z,3.20
2022-08-10T03:41:36.555Z,3.07
2022-08-10T03:46:41.876Z,2.92
2022-08-10T03:51:45.344Z,2.97
2022-08-10T03:56:47.852Z,3.08
2022-08-10T04:02:44.803Z,3.63
2022-08-10T04:07:14.313Z,3.47
2022-08-10T04:12:16.110Z,2.93
2022-08-10T04:17:18.387Z,3.20
2022-08-10T04:22:41.401Z,3.75
2022-08-10T04:27:43.834Z,3.30
2022-08-10T04:32:48.669Z,3.22
2022-08-10T04:37:51.756Z,3.20
2022-08-10T04:42:54.427Z,3.05
2022-08-10T04:48:03.650Z,3.28
2022-08-10T04:53:05.479Z,3.40
2022-08-10T04:58:07.250Z,3.53
2022-08-10T05:03:08.964Z,3.30
2022-08-10T05:08:10.734Z,3.63
2022-08-10T05:13:12.450Z,3.45
2022-08-10T05:18:14.208Z,3.30
2022-08-10T05:23:15.951Z,3.17
2022-08-10T05:28:17.623Z,3.10
2022-08-10T05:33:19.360Z,3.20
2022-08-10T05:38:23.585Z,2.85
2022-08-10T05:43:25.438Z,2.97
2022-08-10T05:48:55.248Z,2.55
2022-08-10T05:54:02.481Z,2.97
2022-08-10T05:59:07.175Z,2.70
2022-08-10T06:04:11.469Z,2.47
2022-08-10T06:09:16.071Z,2.67
2022-08-10T06:14:36.828Z,2.65
2022-08-10T06:19:39.253Z,2.58
2022-08-10T06:25:04.556Z,2.20
2022-08-10T06:30:20.789Z,2.10
2022-08-10T06:35:27.689Z,2.38
2022-08-10T06:40:35.191Z,2.00
2022-08-10T06:45:44.046Z,2.10
2022-08-10T06:50:58.182Z,1.88
2022-08-10T06:56:13.495Z,1.88
2022-08-10T07:01:20.998Z,1.95
2022-08-10T07:06:23.471Z,1.80
2022-08-10T07:11:27.286Z,2.15
2022-08-10T07:16:32.363Z,2.05
2022-08-10T07:21:35.878Z,1.90
2022-08-10T07:26:43.102Z,1.80
2022-08-10T07:31:55.465Z,1.90
2022-08-10T07:37:03.669Z,2.10
2022-08-10T07:42:09.889Z,2.00
2022-08-10T07:47:46.156Z,1.90
2022-08-10T07:52:47.382Z,1.92
2022-08-10T07:57:52.352Z,1.77
2022-08-10T08:02:56.697Z,1.58
2022-08-10T08:08:01.170Z,2.08
2022-08-10T08:13:03.665Z,1.90
2022-08-10T08:18:09.320Z,1.90
2022-08-10T08:24:10.981Z,1.90
2022-08-10T08:28:37.138Z,1.85
2022-08-10T08:33:42.010Z,1.85
2022-08-10T08:38:45.360Z,1.90
2022-08-10T08:43:59.452Z,1.92
2022-08-10T08:50:05.305Z,1.95
2022-08-10T08:55:04.204Z,1.70
2022-08-10T09:00:56.913Z,1.45
2022-08-10T09:06:12.856Z,1.30
2022-08-10T09:11:33.043Z,1.27
2022-08-10T09:17:03.343Z,1.23
2022-08-10T09:22:17.953Z,1.40
2022-08-10T09:27:35.182Z,1.65
2022-08-10T09:36:13.779Z,1.52
2022-08-10T09:38:28.318Z,1.58
2022-08-10T09:43:47.321Z,1.45
2022-08-10T09:49:05.382Z,1.50
2022-08-10T09:54:13.087Z,1.10
2022-08-10T10:00:01.859Z,1.30
2022-08-10T10:05:08.960Z,1.38
2022-08-10T10:10:16.858Z,1.50
2022-08-10T10:15:35.260Z,1.50
2022-08-10T10:21:07.402Z,1.40
2022-08-10T10:26:31.371Z,1.50
2022-08-10T10:31:49.799Z,1.25
2022-08-10T10:36:52.576Z,1.50
2022-08-10T10:42:44.757Z,1.40
2022-08-10T10:48:02.764Z,1.20
2022-08-10T10:53:22.302Z,1.42
2022-08-10T10:58:28.734Z,1.33
2022-08-10T11:04:13.631Z,1.30
2022-08-10T11:10:05.451Z,1.30
2022-08-10T11:14:52.927Z,1.25
2022-08-10T11:20:18.188Z,1.23
2022-08-10T11:25:36.201Z,1.60
2022-08-10T11:30:56.339Z,1.33
2022-08-10T11:36:16.124Z,2.85
2022-08-10T11:42:07.981Z,1.33
2022-08-10T11:47:15.267Z,1.10
2022-08-10T11:52:27.690Z,1.30
2022-08-10T11:57:53.827Z,1.20
2022-08-10T12:03:01.765Z,1.30
2022-08-10T12:10:03.972Z,1.20
2022-08-10T12:13:36.106Z,1.38
2022-08-10T12:19:04.360Z,1.20
2022-08-10T12:24:16.235Z,1.42
2022-08-10T12:29:27.706Z,1.20
2022-08-10T12:34:36.430Z,1.20
2022-08-10T12:39:53.150Z,1.38
2022-08-10T12:45:03.388Z,1.35
2022-08-10T12:50:30.877Z,1.10
2022-08-10T12:55:38.434Z,1.25
2022-08-10T13:01:05.711Z,1.08
2022-08-10T13:06:09.290Z,1.33
2022-08-10T13:11:25.724Z,1.10
2022-08-10T13:16:36.939Z,0.98
2022-08-10T13:21:41.267Z,1.10
2022-08-10T13:27:24.848Z,1.20
2022-08-10T13:32:22.954Z,1.45
2022-08-10T13:37:27.457Z,1.30
2022-08-10T13:42:35.805Z,1.48
2022-08-10T13:47:49.164Z,1.35
2022-08-10T13:52:54.514Z,1.20
2022-08-10T13:57:59.684Z,1.35
2022-08-10T14:03:08.121Z,1.30
2022-08-10T14:08:13.896Z,1.30
2022-08-10T14:13:18.238Z,1.20
2022-08-10T14:18:20.704Z,1.30
2022-08-10T14:23:22.617Z,1.23
2022-08-10T14:28:31.433Z,1.40
2022-08-10T14:33:36.158Z,1.13
2022-08-10T14:38:42.567Z,1.40
2022-08-10T14:43:54.129Z,1.13
2022-08-10T14:48:58.623Z,1.20
2022-08-10T14:54:04.825Z,1.23
2022-08-10T14:59:09.411Z,1.35
2022-08-10T15:04:13.916Z,1.40
2022-08-10T15:09:20.210Z,1.30
2022-08-10T15:14:43.410Z,1.48
2022-08-10T15:20:02.260Z,1.30
2022-08-10T15:25:19.657Z,1.20
2022-08-10T15:30:31.009Z,1.17
2022-08-10T15:35:52.888Z,1.45
2022-08-10T15:40:56.793Z,1.40
2022-08-10T15:46:06.539Z,1.50
2022-08-10T15:51:53.957Z,1.30
2022-08-10T15:57:03.747Z,1.30
2022-08-10T16:02:16.774Z,1.30
2022-08-10T16:07:42.903Z,1.20
2022-08-10T16:13:00.235Z,1.30
2022-08-10T16:23:11.930Z,1.63
2022-08-10T16:28:23.192Z,1.38
2022-08-10T16:33:52.617Z,1.30
2022-08-10T16:38:52.806Z,1.27
2022-08-10T16:43:57.112Z,1.00
2022-08-10T16:49:01.137Z,1.33
2022-08-10T16:54:03.913Z,1.45
2022-08-10T16:59:07.151Z,1.50
2022-08-10T17:04:10.456Z,1.33
2022-08-10T17:09:20.084Z,1.70
2022-08-10T17:14:27.711Z,1.30
2022-08-10T17:19:35.358Z,1.27
2022-08-10T17:24:43.204Z,1.20
2022-08-10T17:29:58.923Z,1.40
2022-08-10T17:35:10.967Z,1.30
2022-08-10T17:40:16.830Z,1.45
2022-08-10T17:45:48.558Z,1.70
2022-08-10T17:50:52.820Z,1.27
2022-08-10T17:55:57.880Z,1.58
2022-08-10T18:01:38.100Z,1.20
2022-08-10T18:06:25.552Z,1.60
2022-08-10T18:11:31.063Z,1.30
2022-08-10T18:16:34.349Z,1.50
2022-08-10T18:21:43.418Z,1.50
2022-08-10T18:26:51.284Z,1.55
2022-08-10T18:32:01.535Z,1.67
2022-08-10T18:37:07.112Z,1.70
2022-08-10T18:42:19.588Z,1.63
2022-08-10T18:47:31.976Z,1.60
2022-08-10T18:57:58.632Z,4.20
2022-08-10T19:03:15.738Z,1.90
2022-08-10T19:08:49.550Z,1.80
2022-08-10T19:14:16.311Z,1.80
2022-08-10T19:19:22.173Z,2.08
2022-08-10T19:24:43.231Z,1.92
2022-08-10T19:30:12.973Z,1.90
2022-08-10T19:36:03.537Z,1.70
2022-08-10T19:41:25.406Z,2.00
2022-08-10T19:47:05.502Z,2.17
2022-08-10T19:52:20.684Z,2.03
2022-08-10T19:57:33.277Z,1.92
2022-08-10T20:03:00.286Z,2.42
2022-08-10T20:08:17.735Z,1.70
2022-08-10T20:13:29.201Z,1.95
2022-08-10T20:18:36.855Z,2.25
2022-08-10T20:23:55.387Z,1.80
2022-08-10T20:29:03.314Z,1.80
2022-08-10T20:34:12.770Z,2.17
2022-08-10T20:39:27.008Z,2.13
2022-08-10T20:44:37.872Z,1.90
2022-08-10T20:49:57.456Z,2.30
2022-08-10T20:55:02.756Z,2.20
2022-08-10T21:00:12.711Z,2.03
2022-08-10T21:05:48.884Z,2.00
2022-08-10T21:11:13.265Z,2.05
2022-08-10T21:16:33.753Z,1.90
2022-08-10T21:22:08.772Z,2.30
2022-08-10T21:27:22.457Z,2.05
2022-08-10T21:32:30.449Z,1.85
2022-08-10T21:37:56.676Z,2.30
2022-08-10T21:43:48.597Z,2.10
2022-08-10T21:49:15.086Z,2.63
2022-08-10T21:54:46.020Z,2.50
2022-08-10T22:00:29.576Z,2.08
2022-08-10T22:05:54.290Z,2.30
2022-08-10T22:11:17.092Z,2.10
2022-08-10T22:18:10.541Z,2.30
2022-08-10T22:23:19.113Z,2.55
2022-08-10T22:28:39.966Z,2.60
2022-08-10T22:34:15.745Z,2.50
2022-08-10T22:40:12.055Z,2.35
2022-08-10T22:45:27.995Z,2.60
2022-08-10T22:50:32.099Z,2.60
2022-08-10T22:55:57.375Z,2.67
2022-08-10T23:01:12.030Z,2.67
2022-08-10T23:06:18.804Z,3.13
2022-08-10T23:11:24.890Z,3.10
2022-08-10T23:16:49.012Z,3.00
2022-08-10T23:22:04.741Z,3.08
2022-08-10T23:27:12.963Z,2.80
2022-08-10T23:32:37.278Z,2.75
2022-08-10T23:37:40.543Z,3.17
2022-08-10T23:42:47.579Z,2.97
2022-08-10T23:47:53.642Z,3.17
2022-08-10T23:52:59.366Z,2.63
2022-08-10T23:58:07.682Z,2.83
